sensor_id;sensor_type;location;lat;lon;timestamp;temperature;humidity
17080;DHT22;8655;57.106;-2.088;2022-12-10T00:02:06;16.10;50.50
17080;DHT22;8655;57.106;-2.088;2022-12-10T00:04:32;16.10;50.50
17080;DHT22;8655;57.106;-2.088;2022-12-10T00:06:58;16.10;50.50
17080;DHT22;8655;57.106;-2.088;2022-12-10T00:09:23;16.10;50.50
17080;DHT22;8655;57.106;-2.088;2022-12-10T00:11:49;16.10;50.50
17080;DHT22;8655;57.106;-2.088;2022-12-10T00:14:15;16.00;50.40
17080;DHT22;8655;57.106;-2.088;2022-12-10T00:16:41;16.00;50.40
17080;DHT22;8655;57.106;-2.088;2022-12-10T00:19:07;16.00;50.40
17080;DHT22;8655;57.106;-2.088;2022-12-10T00:21:34;16.00;50.40
17080;DHT22;8655;57.106;-2.088;2022-12-10T00:24:01;16.00;50.40
17080;DHT22;8655;57.106;-2.088;2022-12-10T00:26:32;16.00;50.40
17080;DHT22;8655;57.106;-2.088;2022-12-10T00:28:59;16.00;50.40
17080;DHT22;8655;57.106;-2.088;2022-12-10T00:31:28;16.00;50.40
17080;DHT22;8655;57.106;-2.088;2022-12-10T00:33:56;16.00;50.40
17080;DHT22;8655;57.106;-2.088;2022-12-10T00:36:35;16.00;50.40
17080;DHT22;8655;57.106;-2.088;2022-12-10T00:39:03;16.00;50.40
17080;DHT22;8655;57.106;-2.088;2022-12-10T00:41:29;15.90;50.30
17080;DHT22;8655;57.106;-2.088;2022-12-10T00:43:55;15.90;50.30
17080;DHT22;8655;57.106;-2.088;2022-12-10T00:46:20;15.90;50.30
17080;DHT22;8655;57.106;-2.088;2022-12-10T00:48:46;15.90;50.30
17080;DHT22;8655;57.106;-2.088;2022-12-10T00:51:17;15.90;50.30
17080;DHT22;8655;57.106;-2.088;2022-12-10T00:53:44;15.90;50.30
17080;DHT22;8655;57.106;-2.088;2022-12-10T00:56:12;15.90;50.30
17080;DHT22;8655;57.106;-2.088;2022-12-10T00:58:39;15.90;50.30
17080;DHT22;8655;57.106;-2.088;2022-12-10T01:01:19;15.80;50.30
17080;DHT22;8655;57.106;-2.088;2022-12-10T01:03:47;15.80;50.20
17080;DHT22;8655;57.106;-2.088;2022-12-10T01:06:40;15.80;50.20
17080;DHT22;8655;57.106;-2.088;2022-12-10T01:09:05;15.80;50.20
17080;DHT22;8655;57.106;-2.088;2022-12-10T01:11:33;15.80;50.20
17080;DHT22;8655;57.106;-2.088;2022-12-10T01:13:59;15.80;50.20
17080;DHT22;8655;57.106;-2.088;2022-12-10T01:16:25;15.80;50.20
17080;DHT22;8655;57.106;-2.088;2022-12-10T01:18:56;15.80;50.20
17080;DHT22;8655;57.106;-2.088;2022-12-10T01:21:23;15.70;50.10
17080;DHT22;8655;57.106;-2.088;2022-12-10T01:23:51;15.70;50.10
17080;DHT22;8655;57.106;-2.088;2022-12-10T01:26:19;15.70;50.10
17080;DHT22;8655;57.106;-2.088;2022-12-10T01:28:46;15.70;50.10
17080;DHT22;8655;57.106;-2.088;2022-12-10T01:31:18;15.70;50.10
17080;DHT22;8655;57.106;-2.088;2022-12-10T01:33:44;15.70;50.10
17080;DHT22;8655;57.106;-2.088;2022-12-10T01:36:13;15.70;50.10
17080;DHT22;8655;57.106;-2.088;2022-12-10T01:38:39;15.70;50.10
17080;DHT22;8655;57.106;-2.088;2022-12-10T01:41:07;15.70;50.10
17080;DHT22;8655;57.106;-2.088;2022-12-10T01:46:21;15.70;50.10
17080;DHT22;8655;57.106;-2.088;2022-12-10T01:48:47;15.60;50.00
17080;DHT22;8655;57.106;-2.088;2022-12-10T01:51:14;15.60;50.00
17080;DHT22;8655;57.106;-2.088;2022-12-10T01:53:41;15.60;50.00
17080;DHT22;8655;57.106;-2.088;2022-12-10T01:56:09;15.60;50.00
17080;DHT22;8655;57.106;-2.088;2022-12-10T01:58:36;15.60;50.00
17080;DHT22;8655;57.106;-2.088;2022-12-10T02:08:46;15.60;50.00
17080;DHT22;8655;57.106;-2.088;2022-12-10T02:11:40;15.60;50.00
17080;DHT22;8655;57.106;-2.088;2022-12-10T02:14:23;15.60;50.00
17080;DHT22;8655;57.106;-2.088;2022-12-10T02:16:57;15.50;49.90
17080;DHT22;8655;57.106;-2.088;2022-12-10T02:21:55;15.50;49.90
17080;DHT22;8655;57.106;-2.088;2022-12-10T02:24:27;15.50;49.90
17080;DHT22;8655;57.106;-2.088;2022-12-10T02:27:32;15.50;49.90
17080;DHT22;8655;57.106;-2.088;2022-12-10T02:30:00;15.50;49.90
17080;DHT22;8655;57.106;-2.088;2022-12-10T02:32:31;15.50;49.90
17080;DHT22;8655;57.106;-2.088;2022-12-10T02:35:01;15.50;49.90
17080;DHT22;8655;57.106;-2.088;2022-12-10T02:37:51;15.50;49.80
17080;DHT22;8655;57.106;-2.088;2022-12-10T02:40:22;15.40;49.80
17080;DHT22;8655;57.106;-2.088;2022-12-10T02:42:50;15.40;49.80
17080;DHT22;8655;57.106;-2.088;2022-12-10T02:45:18;15.40;49.80
17080;DHT22;8655;57.106;-2.088;2022-12-10T02:47:45;15.40;49.80
17080;DHT22;8655;57.106;-2.088;2022-12-10T02:50:13;15.40;49.80
17080;DHT22;8655;57.106;-2.088;2022-12-10T02:52:40;15.40;49.80
17080;DHT22;8655;57.106;-2.088;2022-12-10T02:55:08;15.40;49.80
17080;DHT22;8655;57.106;-2.088;2022-12-10T03:08:21;15.30;49.70
17080;DHT22;8655;57.106;-2.088;2022-12-10T03:13:19;15.30;49.70
17080;DHT22;8655;57.106;-2.088;2022-12-10T03:15:47;15.30;49.70
17080;DHT22;8655;57.106;-2.088;2022-12-10T03:18:16;15.30;49.70
17080;DHT22;8655;57.106;-2.088;2022-12-10T03:20:44;15.30;49.70
17080;DHT22;8655;57.106;-2.088;2022-12-10T03:23:14;15.30;49.70
17080;DHT22;8655;57.106;-2.088;2022-12-10T03:25:41;15.30;49.70
17080;DHT22;8655;57.106;-2.088;2022-12-10T03:28:07;15.30;49.70
17080;DHT22;8655;57.106;-2.088;2022-12-10T03:30:34;15.30;49.70
17080;DHT22;8655;57.106;-2.088;2022-12-10T03:33:01;15.30;49.70
17080;DHT22;8655;57.106;-2.088;2022-12-10T03:35:27;15.30;49.70
17080;DHT22;8655;57.106;-2.088;2022-12-10T03:37:53;15.30;49.70
17080;DHT22;8655;57.106;-2.088;2022-12-10T03:40:22;15.30;49.70
17080;DHT22;8655;57.106;-2.088;2022-12-10T03:42:48;15.20;49.60
17080;DHT22;8655;57.106;-2.088;2022-12-10T03:45:14;15.20;49.60
17080;DHT22;8655;57.106;-2.088;2022-12-10T03:47:41;15.20;49.60
17080;DHT22;8655;57.106;-2.088;2022-12-10T03:50:07;15.20;49.60
17080;DHT22;8655;57.106;-2.088;2022-12-10T03:52:33;15.20;49.60
17080;DHT22;8655;57.106;-2.088;2022-12-10T03:54:58;15.20;49.60
17080;DHT22;8655;57.106;-2.088;2022-12-10T03:57:24;15.20;49.60
17080;DHT22;8655;57.106;-2.088;2022-12-10T03:59:50;15.20;49.60
17080;DHT22;8655;57.106;-2.088;2022-12-10T04:02:16;15.20;49.60
17080;DHT22;8655;57.106;-2.088;2022-12-10T04:04:41;15.20;49.60
17080;DHT22;8655;57.106;-2.088;2022-12-10T04:07:07;15.20;49.60
17080;DHT22;8655;57.106;-2.088;2022-12-10T04:09:33;15.20;49.60
17080;DHT22;8655;57.106;-2.088;2022-12-10T04:11:59;15.20;49.60
17080;DHT22;8655;57.106;-2.088;2022-12-10T04:14:26;15.20;49.60
17080;DHT22;8655;57.106;-2.088;2022-12-10T04:17:10;15.20;49.60
17080;DHT22;8655;57.106;-2.088;2022-12-10T04:19:36;15.10;49.50
17080;DHT22;8655;57.106;-2.088;2022-12-10T04:22:02;15.10;49.50
17080;DHT22;8655;57.106;-2.088;2022-12-10T04:24:46;15.10;49.50
17080;DHT22;8655;57.106;-2.088;2022-12-10T04:27:32;15.10;49.50
17080;DHT22;8655;57.106;-2.088;2022-12-10T04:29:59;15.10;49.50
17080;DHT22;8655;57.106;-2.088;2022-12-10T04:32:27;15.10;49.50
17080;DHT22;8655;57.106;-2.088;2022-12-10T04:34:53;15.10;49.50
17080;DHT22;8655;57.106;-2.088;2022-12-10T04:37:19;15.10;49.50
17080;DHT22;8655;57.106;-2.088;2022-12-10T04:39:46;15.10;49.50
17080;DHT22;8655;57.106;-2.088;2022-12-10T04:42:12;15.10;49.50
17080;DHT22;8655;57.106;-2.088;2022-12-10T04:44:38;15.10;49.50
17080;DHT22;8655;57.106;-2.088;2022-12-10T04:47:06;15.00;49.40
17080;DHT22;8655;57.106;-2.088;2022-12-10T04:49:32;15.00;49.40
17080;DHT22;8655;57.106;-2.088;2022-12-10T04:51:58;15.00;49.40
17080;DHT22;8655;57.106;-2.088;2022-12-10T04:54:24;15.00;49.40
17080;DHT22;8655;57.106;-2.088;2022-12-10T04:56:50;15.00;49.40
17080;DHT22;8655;57.106;-2.088;2022-12-10T04:59:15;15.00;49.40
17080;DHT22;8655;57.106;-2.088;2022-12-10T05:01:41;15.00;49.40
17080;DHT22;8655;57.106;-2.088;2022-12-10T05:04:09;15.00;49.40
17080;DHT22;8655;57.106;-2.088;2022-12-10T05:06:35;15.00;49.40
17080;DHT22;8655;57.106;-2.088;2022-12-10T05:09:03;15.00;49.40
17080;DHT22;8655;57.106;-2.088;2022-12-10T05:11:31;15.00;49.40
17080;DHT22;8655;57.106;-2.088;2022-12-10T05:13:57;15.00;49.40
17080;DHT22;8655;57.106;-2.088;2022-12-10T05:16:26;14.90;49.30
17080;DHT22;8655;57.106;-2.088;2022-12-10T05:18:53;15.00;49.40
17080;DHT22;8655;57.106;-2.088;2022-12-10T05:21:20;14.90;49.30
17080;DHT22;8655;57.106;-2.088;2022-12-10T05:23:48;14.90;49.30
17080;DHT22;8655;57.106;-2.088;2022-12-10T05:26:19;14.90;49.40
17080;DHT22;8655;57.106;-2.088;2022-12-10T05:28:54;14.90;49.40
17080;DHT22;8655;57.106;-2.088;2022-12-10T05:31:25;14.90;49.40
17080;DHT22;8655;57.106;-2.088;2022-12-10T05:33:52;14.90;49.40
17080;DHT22;8655;57.106;-2.088;2022-12-10T05:36:20;14.90;49.40
17080;DHT22;8655;57.106;-2.088;2022-12-10T05:38:47;14.90;49.30
17080;DHT22;8655;57.106;-2.088;2022-12-10T05:41:18;14.90;49.40
17080;DHT22;8655;57.106;-2.088;2022-12-10T05:43:44;14.90;49.40
17080;DHT22;8655;57.106;-2.088;2022-12-10T05:46:13;14.90;49.40
17080;DHT22;8655;57.106;-2.088;2022-12-10T05:48:39;14.80;49.30
17080;DHT22;8655;57.106;-2.088;2022-12-10T05:51:09;14.80;49.30
17080;DHT22;8655;57.106;-2.088;2022-12-10T05:53:36;14.80;49.30
17080;DHT22;8655;57.106;-2.088;2022-12-10T05:56:06;14.80;49.30
17080;DHT22;8655;57.106;-2.088;2022-12-10T05:58:33;14.80;49.30
17080;DHT22;8655;57.106;-2.088;2022-12-10T06:00:59;14.80;49.30
17080;DHT22;8655;57.106;-2.088;2022-12-10T06:03:27;14.80;49.30
17080;DHT22;8655;57.106;-2.088;2022-12-10T06:05:53;14.90;49.40
17080;DHT22;8655;57.106;-2.088;2022-12-10T06:08:19;14.80;49.30
17080;DHT22;8655;57.106;-2.088;2022-12-10T06:10:45;14.80;49.30
17080;DHT22;8655;57.106;-2.088;2022-12-10T06:13:11;14.80;49.30
17080;DHT22;8655;57.106;-2.088;2022-12-10T06:15:40;14.80;49.30
17080;DHT22;8655;57.106;-2.088;2022-12-10T06:18:07;14.80;49.30
17080;DHT22;8655;57.106;-2.088;2022-12-10T06:20:33;14.80;49.30
17080;DHT22;8655;57.106;-2.088;2022-12-10T06:22:59;14.80;49.30
17080;DHT22;8655;57.106;-2.088;2022-12-10T06:25:24;14.80;49.30
17080;DHT22;8655;57.106;-2.088;2022-12-10T06:27:50;14.70;49.20
17080;DHT22;8655;57.106;-2.088;2022-12-10T06:30:16;14.80;49.40
17080;DHT22;8655;57.106;-2.088;2022-12-10T06:32:42;14.80;49.30
17080;DHT22;8655;57.106;-2.088;2022-12-10T06:35:10;14.70;49.30
17080;DHT22;8655;57.106;-2.088;2022-12-10T06:37:36;14.70;49.20
17080;DHT22;8655;57.106;-2.088;2022-12-10T06:40:03;14.70;49.30
17080;DHT22;8655;57.106;-2.088;2022-12-10T06:42:29;14.70;49.20
17080;DHT22;8655;57.106;-2.088;2022-12-10T06:44:55;14.70;49.30
17080;DHT22;8655;57.106;-2.088;2022-12-10T06:47:21;14.70;49.30
17080;DHT22;8655;57.106;-2.088;2022-12-10T06:49:46;14.70;49.30
17080;DHT22;8655;57.106;-2.088;2022-12-10T06:52:12;14.70;49.30
17080;DHT22;8655;57.106;-2.088;2022-12-10T06:54:38;14.70;49.40
17080;DHT22;8655;57.106;-2.088;2022-12-10T06:57:04;14.70;49.40
17080;DHT22;8655;57.106;-2.088;2022-12-10T06:59:29;14.70;49.50
17080;DHT22;8655;57.106;-2.088;2022-12-10T07:01:55;14.80;49.60
17080;DHT22;8655;57.106;-2.088;2022-12-10T07:04:21;14.80;49.60
17080;DHT22;8655;57.106;-2.088;2022-12-10T07:06:46;14.80;49.60
17080;DHT22;8655;57.106;-2.088;2022-12-10T07:09:12;14.80;49.60
17080;DHT22;8655;57.106;-2.088;2022-12-10T07:11:38;14.90;49.60
17080;DHT22;8655;57.106;-2.088;2022-12-10T07:14:04;15.00;49.70
17080;DHT22;8655;57.106;-2.088;2022-12-10T07:16:31;15.00;49.70
17080;DHT22;8655;57.106;-2.088;2022-12-10T07:18:59;15.00;49.70
17080;DHT22;8655;57.106;-2.088;2022-12-10T07:21:28;15.10;49.80
17080;DHT22;8655;57.106;-2.088;2022-12-10T07:23:56;15.20;49.80
17080;DHT22;8655;57.106;-2.088;2022-12-10T07:26:34;15.20;49.80
17080;DHT22;8655;57.106;-2.088;2022-12-10T07:29:02;15.30;49.90
17080;DHT22;8655;57.106;-2.088;2022-12-10T07:31:28;15.30;49.90
17080;DHT22;8655;57.106;-2.088;2022-12-10T07:33:56;15.40;50.00
17080;DHT22;8655;57.106;-2.088;2022-12-10T07:36:22;15.40;50.00
17080;DHT22;8655;57.106;-2.088;2022-12-10T07:38:49;15.40;50.60
17080;DHT22;8655;57.106;-2.088;2022-12-10T07:41:15;15.50;50.00
17080;DHT22;8655;57.106;-2.088;2022-12-10T07:43:42;15.60;50.10
17080;DHT22;8655;57.106;-2.088;2022-12-10T07:46:16;15.60;50.10
17080;DHT22;8655;57.106;-2.088;2022-12-10T07:48:44;15.70;50.20
17080;DHT22;8655;57.106;-2.088;2022-12-10T07:51:10;15.70;50.20
17080;DHT22;8655;57.106;-2.088;2022-12-10T07:53:36;15.80;50.20
17080;DHT22;8655;57.106;-2.088;2022-12-10T07:56:02;15.80;50.30
17080;DHT22;8655;57.106;-2.088;2022-12-10T07:58:28;15.90;50.30
17080;DHT22;8655;57.106;-2.088;2022-12-10T08:00:54;15.90;50.30
17080;DHT22;8655;57.106;-2.088;2022-12-10T08:03:20;16.00;50.40
17080;DHT22;8655;57.106;-2.088;2022-12-10T08:05:45;16.00;50.40
17080;DHT22;8655;57.106;-2.088;2022-12-10T08:08:11;16.10;50.50
17080;DHT22;8655;57.106;-2.088;2022-12-10T08:10:38;16.10;50.40
17080;DHT22;8655;57.106;-2.088;2022-12-10T08:13:04;16.20;50.50
17080;DHT22;8655;57.106;-2.088;2022-12-10T08:15:31;16.20;50.50
17080;DHT22;8655;57.106;-2.088;2022-12-10T08:17:57;16.30;50.60
17080;DHT22;8655;57.106;-2.088;2022-12-10T08:20:23;16.30;50.60
17080;DHT22;8655;57.106;-2.088;2022-12-10T08:22:50;16.40;50.70
17080;DHT22;8655;57.106;-2.088;2022-12-10T08:25:16;16.40;50.70
17080;DHT22;8655;57.106;-2.088;2022-12-10T08:27:41;16.50;50.70
17080;DHT22;8655;57.106;-2.088;2022-12-10T08:30:08;16.50;50.80
17080;DHT22;8655;57.106;-2.088;2022-12-10T08:32:33;16.50;50.70
17080;DHT22;8655;57.106;-2.088;2022-12-10T08:34:59;16.60;51.00
17080;DHT22;8655;57.106;-2.088;2022-12-10T08:37:25;16.60;50.80
17080;DHT22;8655;57.106;-2.088;2022-12-10T08:39:50;16.60;50.80
17080;DHT22;8655;57.106;-2.088;2022-12-10T08:42:16;16.70;50.90
17080;DHT22;8655;57.106;-2.088;2022-12-10T08:44:42;16.70;50.90
17080;DHT22;8655;57.106;-2.088;2022-12-10T08:47:07;16.80;50.90
17080;DHT22;8655;57.106;-2.088;2022-12-10T08:49:33;16.80;50.90
17080;DHT22;8655;57.106;-2.088;2022-12-10T08:51:59;16.90;51.00
17080;DHT22;8655;57.106;-2.088;2022-12-10T08:54:25;16.90;51.00
17080;DHT22;8655;57.106;-2.088;2022-12-10T08:56:50;16.90;51.00
17080;DHT22;8655;57.106;-2.088;2022-12-10T08:59:16;17.00;51.00
17080;DHT22;8655;57.106;-2.088;2022-12-10T09:01:42;17.00;51.00
17080;DHT22;8655;57.106;-2.088;2022-12-10T09:04:08;17.00;51.00
17080;DHT22;8655;57.106;-2.088;2022-12-10T09:06:35;17.00;51.00
17080;DHT22;8655;57.106;-2.088;2022-12-10T09:09:01;17.00;51.00
17080;DHT22;8655;57.106;-2.088;2022-12-10T09:11:32;17.00;51.00
17080;DHT22;8655;57.106;-2.088;2022-12-10T09:13:59;17.10;51.00
17080;DHT22;8655;57.106;-2.088;2022-12-10T09:16:36;17.10;51.00
17080;DHT22;8655;57.106;-2.088;2022-12-10T09:19:03;17.10;51.00
17080;DHT22;8655;57.106;-2.088;2022-12-10T09:21:29;17.10;51.00
17080;DHT22;8655;57.106;-2.088;2022-12-10T09:23:56;17.10;51.00
17080;DHT22;8655;57.106;-2.088;2022-12-10T09:26:23;17.10;51.00
17080;DHT22;8655;57.106;-2.088;2022-12-10T09:28:49;17.10;51.00
17080;DHT22;8655;57.106;-2.088;2022-12-10T09:31:17;17.00;50.90
17080;DHT22;8655;57.106;-2.088;2022-12-10T09:33:44;17.00;51.00
17080;DHT22;8655;57.106;-2.088;2022-12-10T09:36:10;17.00;50.90
17080;DHT22;8655;57.106;-2.088;2022-12-10T09:38:38;17.00;50.90
17080;DHT22;8655;57.106;-2.088;2022-12-10T09:49:50;17.00;51.00
17080;DHT22;8655;57.106;-2.088;2022-12-10T09:52:21;16.90;50.90
17080;DHT22;8655;57.106;-2.088;2022-12-10T09:55:12;16.90;50.90
17080;DHT22;8655;57.106;-2.088;2022-12-10T09:57:41;16.90;50.90
17080;DHT22;8655;57.106;-2.088;2022-12-10T10:00:30;16.90;50.90
17080;DHT22;8655;57.106;-2.088;2022-12-10T10:02:59;16.90;50.90
17080;DHT22;8655;57.106;-2.088;2022-12-10T10:05:27;16.90;51.00
17080;DHT22;8655;57.106;-2.088;2022-12-10T10:07:55;16.80;50.90
17080;DHT22;8655;57.106;-2.088;2022-12-10T10:10:34;16.80;50.80
17080;DHT22;8655;57.106;-2.088;2022-12-10T10:13:23;16.80;50.80
17080;DHT22;8655;57.106;-2.088;2022-12-10T10:15:52;16.80;50.80
17080;DHT22;8655;57.106;-2.088;2022-12-10T10:20:52;16.70;50.80
17080;DHT22;8655;57.106;-2.088;2022-12-10T10:23:19;16.70;50.80
17080;DHT22;8655;57.106;-2.088;2022-12-10T10:25:45;16.80;50.90
17080;DHT22;8655;57.106;-2.088;2022-12-10T10:28:19;16.70;50.90
17080;DHT22;8655;57.106;-2.088;2022-12-10T10:30:45;16.70;50.80
17080;DHT22;8655;57.106;-2.088;2022-12-10T10:33:13;16.70;50.80
17080;DHT22;8655;57.106;-2.088;2022-12-10T10:35:48;16.60;50.70
17080;DHT22;8655;57.106;-2.088;2022-12-10T10:38:21;16.60;50.70
17080;DHT22;8655;57.106;-2.088;2022-12-10T10:40:59;16.60;50.70
17080;DHT22;8655;57.106;-2.088;2022-12-10T10:43:28;16.60;50.70
17080;DHT22;8655;57.106;-2.088;2022-12-10T10:46:21;16.60;50.80
17080;DHT22;8655;57.106;-2.088;2022-12-10T10:48:49;16.60;50.80
17080;DHT22;8655;57.106;-2.088;2022-12-10T10:53:55;16.60;50.80
17080;DHT22;8655;57.106;-2.088;2022-12-10T10:59:07;16.50;50.70
17080;DHT22;8655;57.106;-2.088;2022-12-10T11:01:49;16.50;50.70
17080;DHT22;8655;57.106;-2.088;2022-12-10T11:04:46;16.50;50.70
17080;DHT22;8655;57.106;-2.088;2022-12-10T11:07:19;16.50;50.70
17080;DHT22;8655;57.106;-2.088;2022-12-10T11:09:45;16.40;50.60
17080;DHT22;8655;57.106;-2.088;2022-12-10T11:12:44;16.40;50.60
17080;DHT22;8655;57.106;-2.088;2022-12-10T11:17:54;16.40;50.60
17080;DHT22;8655;57.106;-2.088;2022-12-10T11:20:23;16.40;50.60
17080;DHT22;8655;57.106;-2.088;2022-12-10T11:22:51;16.30;50.50
17080;DHT22;8655;57.106;-2.088;2022-12-10T11:25:19;16.30;50.50
17080;DHT22;8655;57.106;-2.088;2022-12-10T11:28:00;16.30;50.60
17080;DHT22;8655;57.106;-2.088;2022-12-10T11:30:30;16.30;50.50
17080;DHT22;8655;57.106;-2.088;2022-12-10T11:36:32;16.30;50.60
17080;DHT22;8655;57.106;-2.088;2022-12-10T11:50:49;16.20;50.40
17080;DHT22;8655;57.106;-2.088;2022-12-10T11:56:26;16.20;50.40
17080;DHT22;8655;57.106;-2.088;2022-12-10T12:05:03;16.10;50.30
17080;DHT22;8655;57.106;-2.088;2022-12-10T12:12:57;16.10;50.40
17080;DHT22;8655;57.106;-2.088;2022-12-10T12:18:23;16.10;50.40
17080;DHT22;8655;57.106;-2.088;2022-12-10T12:20:57;16.10;50.40
17080;DHT22;8655;57.106;-2.088;2022-12-10T12:23:36;16.00;50.90
17080;DHT22;8655;57.106;-2.088;2022-12-10T12:27:18;16.00;50.30
17080;DHT22;8655;57.106;-2.088;2022-12-10T12:29:25;16.10;50.40
17080;DHT22;8655;57.106;-2.088;2022-12-10T12:32:11;16.00;50.30
17080;DHT22;8655;57.106;-2.088;2022-12-10T12:34:56;16.00;50.30
17080;DHT22;8655;57.106;-2.088;2022-12-10T12:37:32;16.00;50.30
17080;DHT22;8655;57.106;-2.088;2022-12-10T12:42:47;16.00;50.30
17080;DHT22;8655;57.106;-2.088;2022-12-10T12:45:20;16.00;50.30
17080;DHT22;8655;57.106;-2.088;2022-12-10T12:48:11;15.90;50.20
17080;DHT22;8655;57.106;-2.088;2022-12-10T12:53:15;15.90;50.30
17080;DHT22;8655;57.106;-2.088;2022-12-10T12:59:31;15.90;50.30
17080;DHT22;8655;57.106;-2.088;2022-12-10T13:01:38;15.90;50.20
17080;DHT22;8655;57.106;-2.088;2022-12-10T13:04:06;15.90;50.20
17080;DHT22;8655;57.106;-2.088;2022-12-10T13:06:34;15.90;50.20
17080;DHT22;8655;57.106;-2.088;2022-12-10T13:11:45;15.90;50.20
17080;DHT22;8655;57.106;-2.088;2022-12-10T13:14:16;15.90;50.20
17080;DHT22;8655;57.106;-2.088;2022-12-10T13:19:27;15.80;50.10
17080;DHT22;8655;57.106;-2.088;2022-12-10T13:24:46;15.80;50.10
17080;DHT22;8655;57.106;-2.088;2022-12-10T13:27:17;15.80;50.10
17080;DHT22;8655;57.106;-2.088;2022-12-10T13:29:59;15.80;50.10
17080;DHT22;8655;57.106;-2.088;2022-12-10T13:37:57;15.80;50.10
17080;DHT22;8655;57.106;-2.088;2022-12-10T13:43:23;15.80;50.10
17080;DHT22;8655;57.106;-2.088;2022-12-10T13:46:34;15.70;50.10
17080;DHT22;8655;57.106;-2.088;2022-12-10T13:49:04;15.70;50.10
17080;DHT22;8655;57.106;-2.088;2022-12-10T13:52:07;15.70;50.10
17080;DHT22;8655;57.106;-2.088;2022-12-10T14:00:19;15.70;50.10
17080;DHT22;8655;57.106;-2.088;2022-12-10T14:06:17;15.70;50.10
17080;DHT22;8655;57.106;-2.088;2022-12-10T14:09:00;15.70;50.10
17080;DHT22;8655;57.106;-2.088;2022-12-10T14:11:39;15.70;50.10
17080;DHT22;8655;57.106;-2.088;2022-12-10T14:14:11;15.60;50.00
17080;DHT22;8655;57.106;-2.088;2022-12-10T14:16:40;15.60;50.00
17080;DHT22;8655;57.106;-2.088;2022-12-10T14:19:08;15.60;50.00
17080;DHT22;8655;57.106;-2.088;2022-12-10T14:21:39;15.60;50.00
17080;DHT22;8655;57.106;-2.088;2022-12-10T14:24:29;15.60;50.00
17080;DHT22;8655;57.106;-2.088;2022-12-10T14:27:03;15.60;50.00
17080;DHT22;8655;57.106;-2.088;2022-12-10T14:29:30;15.60;50.00
17080;DHT22;8655;57.106;-2.088;2022-12-10T14:31:56;15.60;50.00
17080;DHT22;8655;57.106;-2.088;2022-12-10T14:34:27;15.60;50.00
17080;DHT22;8655;57.106;-2.088;2022-12-10T14:36:56;15.60;50.00
17080;DHT22;8655;57.106;-2.088;2022-12-10T14:39:27;15.60;50.00
17080;DHT22;8655;57.106;-2.088;2022-12-10T14:41:57;15.60;50.00
17080;DHT22;8655;57.106;-2.088;2022-12-10T14:44:23;15.50;49.90
17080;DHT22;8655;57.106;-2.088;2022-12-10T14:46:50;15.50;49.90
17080;DHT22;8655;57.106;-2.088;2022-12-10T14:49:21;15.60;50.00
17080;DHT22;8655;57.106;-2.088;2022-12-10T14:51:48;15.50;49.90
17080;DHT22;8655;57.106;-2.088;2022-12-10T14:54:29;15.50;49.90
17080;DHT22;8655;57.106;-2.088;2022-12-10T14:56:59;15.60;50.00
17080;DHT22;8655;57.106;-2.088;2022-12-10T14:59:32;15.50;49.90
17080;DHT22;8655;57.106;-2.088;2022-12-10T15:02:10;15.50;49.90
17080;DHT22;8655;57.106;-2.088;2022-12-10T15:04:41;15.50;49.90
17080;DHT22;8655;57.106;-2.088;2022-12-10T15:07:14;15.50;49.90
17080;DHT22;8655;57.106;-2.088;2022-12-10T15:09:40;15.50;50.50
17080;DHT22;8655;57.106;-2.088;2022-12-10T15:12:23;15.50;49.90
17080;DHT22;8655;57.106;-2.088;2022-12-10T15:14:57;15.50;49.90
17080;DHT22;8655;57.106;-2.088;2022-12-10T15:17:40;15.50;49.80
17080;DHT22;8655;57.106;-2.088;2022-12-10T15:20:22;15.50;49.90
17080;DHT22;8655;57.106;-2.088;2022-12-10T15:22:48;15.50;49.90
17080;DHT22;8655;57.106;-2.088;2022-12-10T15:25:28;15.50;49.90
17080;DHT22;8655;57.106;-2.088;2022-12-10T15:27:56;15.40;49.80
17080;DHT22;8655;57.106;-2.088;2022-12-10T15:30:33;15.40;49.80
17080;DHT22;8655;57.106;-2.088;2022-12-10T15:32:59;15.40;49.80
17080;DHT22;8655;57.106;-2.088;2022-12-10T15:35:26;15.40;49.80
17080;DHT22;8655;57.106;-2.088;2022-12-10T15:37:53;15.40;49.80
17080;DHT22;8655;57.106;-2.088;2022-12-10T15:40:27;15.40;49.80
17080;DHT22;8655;57.106;-2.088;2022-12-10T15:43:10;15.40;49.80
17080;DHT22;8655;57.106;-2.088;2022-12-10T15:45:40;15.40;49.80
17080;DHT22;8655;57.106;-2.088;2022-12-10T15:48:12;15.40;49.80
17080;DHT22;8655;57.106;-2.088;2022-12-10T15:50:40;15.40;49.80
17080;DHT22;8655;57.106;-2.088;2022-12-10T15:53:14;15.40;49.80
17080;DHT22;8655;57.106;-2.088;2022-12-10T15:55:41;15.40;49.80
17080;DHT22;8655;57.106;-2.088;2022-12-10T15:58:11;15.30;49.80
17080;DHT22;8655;57.106;-2.088;2022-12-10T16:00:37;15.30;49.80
17080;DHT22;8655;57.106;-2.088;2022-12-10T16:03:10;15.30;49.80
17080;DHT22;8655;57.106;-2.088;2022-12-10T16:05:38;15.30;49.80
17080;DHT22;8655;57.106;-2.088;2022-12-10T16:08:22;15.30;49.80
17080;DHT22;8655;57.106;-2.088;2022-12-10T16:10:52;15.30;49.80
17080;DHT22;8655;57.106;-2.088;2022-12-10T16:13:35;15.30;49.80
17080;DHT22;8655;57.106;-2.088;2022-12-10T16:16:10;15.30;49.80
17080;DHT22;8655;57.106;-2.088;2022-12-10T16:18:36;15.30;49.80
17080;DHT22;8655;57.106;-2.088;2022-12-10T16:21:04;15.30;49.80
17080;DHT22;8655;57.106;-2.088;2022-12-10T16:23:30;15.30;49.80
17080;DHT22;8655;57.106;-2.088;2022-12-10T16:25:56;15.30;49.80
17080;DHT22;8655;57.106;-2.088;2022-12-10T16:28:23;15.30;49.80
17080;DHT22;8655;57.106;-2.088;2022-12-10T16:30:51;15.30;49.80
17080;DHT22;8655;57.106;-2.088;2022-12-10T16:33:18;15.30;49.80
17080;DHT22;8655;57.106;-2.088;2022-12-10T16:35:45;15.30;49.80
17080;DHT22;8655;57.106;-2.088;2022-12-10T16:38:11;15.30;49.80
17080;DHT22;8655;57.106;-2.088;2022-12-10T16:40:39;15.30;49.80
17080;DHT22;8655;57.106;-2.088;2022-12-10T16:43:05;15.30;49.80
17080;DHT22;8655;57.106;-2.088;2022-12-10T16:45:40;15.20;49.70
17080;DHT22;8655;57.106;-2.088;2022-12-10T16:48:05;15.20;49.70
17080;DHT22;8655;57.106;-2.088;2022-12-10T16:50:31;15.20;49.70
17080;DHT22;8655;57.106;-2.088;2022-12-10T16:52:57;15.20;49.70
17080;DHT22;8655;57.106;-2.088;2022-12-10T16:55:26;15.20;49.70
17080;DHT22;8655;57.106;-2.088;2022-12-10T16:57:53;15.20;49.70
17080;DHT22;8655;57.106;-2.088;2022-12-10T17:00:22;15.20;49.70
17080;DHT22;8655;57.106;-2.088;2022-12-10T17:02:49;15.20;49.70
17080;DHT22;8655;57.106;-2.088;2022-12-10T17:05:31;15.20;49.70
17080;DHT22;8655;57.106;-2.088;2022-12-10T17:07:58;15.20;49.70
17080;DHT22;8655;57.106;-2.088;2022-12-10T17:10:24;15.20;49.70
17080;DHT22;8655;57.106;-2.088;2022-12-10T17:13:13;15.20;49.70
17080;DHT22;8655;57.106;-2.088;2022-12-10T17:15:41;15.20;49.70
17080;DHT22;8655;57.106;-2.088;2022-12-10T17:18:11;15.20;49.70
17080;DHT22;8655;57.106;-2.088;2022-12-10T17:20:38;15.20;49.70
17080;DHT22;8655;57.106;-2.088;2022-12-10T17:23:03;15.20;49.70
17080;DHT22;8655;57.106;-2.088;2022-12-10T17:25:30;15.10;49.60
17080;DHT22;8655;57.106;-2.088;2022-12-10T17:27:56;15.10;49.60
17080;DHT22;8655;57.106;-2.088;2022-12-10T17:30:22;15.10;49.60
17080;DHT22;8655;57.106;-2.088;2022-12-10T17:32:49;15.10;49.70
17080;DHT22;8655;57.106;-2.088;2022-12-10T17:35:15;15.10;49.60
17080;DHT22;8655;57.106;-2.088;2022-12-10T17:37:41;15.10;49.60
17080;DHT22;8655;57.106;-2.088;2022-12-10T17:40:16;15.10;49.60